createdAt,value
2023-01-10T00:00:37.483Z,97488.28
2023-01-10T00:03:09.198Z,97493.56
2023-01-10T00:05:37.427Z,97462.19
2023-01-10T00:08:05.478Z,97491.78
2023-01-10T00:10:33.380Z,97495.41
2023-01-10T00:13:19.006Z,97469.00
2023-01-10T00:15:46.448Z,97502.50
2023-01-10T00:18:13.220Z,97502.09
2023-01-10T00:20:40.011Z,97501.13
2023-01-10T00:23:06.911Z,97510.91
2023-01-10T00:25:35.976Z,97510.44
2023-01-10T00:28:19.880Z,97510.44
2023-01-10T00:31:01.453Z,97508.38
2023-01-10T00:33:31.972Z,97515.88
2023-01-10T00:36:00.105Z,97520.34
2023-01-10T00:38:27.370Z,97529.44
2023-01-10T00:40:54.214Z,97500.59
2023-01-10T00:43:39.364Z,97510.50
2023-01-10T00:46:06.141Z,97529.97
2023-01-10T00:48:32.784Z,97539.72
2023-01-10T00:50:59.456Z,97545.31
2023-01-10T00:53:26.131Z,97553.66
2023-01-10T00:55:54.305Z,97529.31
2023-01-10T00:58:21.651Z,97543.06
2023-01-10T01:00:49.954Z,97546.53
2023-01-10T01:03:18.762Z,97551.84
2023-01-10T01:05:46.907Z,97553.81
2023-01-10T01:08:15.319Z,97526.81
2023-01-10T01:10:42.082Z,97555.34
2023-01-10T01:13:12.505Z,97555.34
2023-01-10T01:15:39.351Z,97520.25
2023-01-10T01:18:06.706Z,97557.13
2023-01-10T01:20:33.625Z,97555.44
2023-01-10T01:23:01.120Z,97557.28
2023-01-10T01:25:29.957Z,97556.72
2023-01-10T01:27:56.688Z,97549.22
2023-01-10T01:30:23.418Z,97570.53
2023-01-10T01:32:50.149Z,97560.66
2023-01-10T01:35:17.497Z,97560.66
2023-01-10T01:37:44.606Z,97574.13
2023-01-10T01:40:14.747Z,97547.84
2023-01-10T01:42:41.481Z,97570.66
2023-01-10T01:45:11.254Z,97565.38
2023-01-10T01:47:45.138Z,97572.47
2023-01-10T01:50:19.887Z,97572.78
2023-01-10T01:52:48.805Z,97576.13
2023-01-10T01:55:15.803Z,97573.03
2023-01-10T01:57:46.014Z,97577.09
2023-01-10T02:00:13.393Z,97576.25
2023-01-10T02:03:01.725Z,97578.06
2023-01-10T02:05:31.376Z,97571.91
2023-01-10T02:08:02.242Z,97574.56
2023-01-10T02:10:40.886Z,97583.34
2023-01-10T02:13:11.439Z,97579.84
2023-01-10T02:15:38.014Z,97584.34
2023-01-10T02:18:04.866Z,97588.81
2023-01-10T02:20:44.966Z,97598.41
2023-01-10T02:23:36.834Z,97586.97
2023-01-10T02:26:26.998Z,97584.47
2023-01-10T02:29:11.889Z,97590.75
2023-01-10T02:32:16.169Z,97592.56
2023-01-10T02:35:28.038Z,97590.06
2023-01-10T02:38:32.504Z,97599.97
2023-01-10T02:41:08.119Z,97600.09
2023-01-10T02:43:40.587Z,97602.19
2023-01-10T02:46:17.051Z,97600.94
2023-01-10T02:48:43.918Z,97576.72
2023-01-10T02:51:19.233Z,97606.34
2023-01-10T02:53:54.254Z,97603.59
2023-01-10T02:56:30.161Z,97615.31
2023-01-10T02:59:15.385Z,97624.06
2023-01-10T03:02:11.131Z,97625.88
2023-01-10T03:04:54.541Z,97627.69
2023-01-10T03:07:40.245Z,97628.81
2023-01-10T03:10:25.284Z,97642.03
2023-01-10T03:13:04.988Z,97638.56
2023-01-10T03:15:38.340Z,97647.47
2023-01-10T03:18:12.725Z,97643.16
2023-01-10T03:20:44.677Z,97642.34
2023-01-10T03:23:13.535Z,97644.97
2023-01-10T03:25:42.062Z,97599.28
2023-01-10T03:28:16.024Z,97650.28
2023-01-10T03:31:11.522Z,97659.19
2023-01-10T03:33:38.951Z,97658.34
2023-01-10T03:36:09.151Z,97668.91
2023-01-10T03:38:54.143Z,97666.28
2023-01-10T03:41:42.499Z,97653.59
2023-01-10T03:44:45.664Z,97679.81
2023-01-10T03:47:34.152Z,97685.25
2023-01-10T03:50:06.577Z,97694.16
2023-01-10T03:52:35.657Z,97691.09
2023-01-10T03:55:03.426Z,97700.44
2023-01-10T03:57:30.092Z,97704.91
2023-01-10T03:59:59.002Z,97706.69
2023-01-10T04:02:28.112Z,97669.72
2023-01-10T04:04:54.966Z,97589.34
2023-01-10T04:07:21.752Z,97683.50
2023-01-10T04:09:48.381Z,97697.75
2023-01-10T04:12:15.801Z,97735.09
2023-01-10T04:14:42.609Z,97724.50
2023-01-10T04:17:09.298Z,97737.75
2023-01-10T04:19:35.866Z,97744.03
2023-01-10T04:22:02.491Z,97741.50
2023-01-10T04:24:29.105Z,97750.28
2023-01-10T04:26:55.822Z,97735.38
2023-01-10T04:29:22.497Z,97741.50
2023-01-10T04:31:50.085Z,97715.25
2023-01-10T04:34:16.842Z,97727.25
2023-01-10T04:36:43.452Z,97755.44
2023-01-10T04:39:10.107Z,97755.03
2023-01-10T04:42:08.642Z,97761.28
2023-01-10T04:44:35.391Z,97763.94
2023-01-10T04:47:02.025Z,97761.13
2023-01-10T04:49:28.765Z,97781.63
2023-01-10T04:51:55.493Z,97782.59
2023-01-10T04:54:23.104Z,97782.72
2023-01-10T04:56:50.120Z,97773.53
2023-01-10T04:59:16.815Z,97777.00
2023-01-10T05:01:43.522Z,97784.94
2023-01-10T05:04:10.459Z,97807.38
2023-01-10T05:06:40.000Z,97802.25
2023-01-10T05:09:08.049Z,97791.09
2023-01-10T05:11:34.724Z,97803.19
2023-01-10T05:14:01.387Z,97801.78
2023-01-10T05:16:28.850Z,97789.59
2023-01-10T05:18:55.613Z,97808.69
2023-01-10T05:21:22.260Z,97809.44
2023-01-10T05:23:49.087Z,97806.47
2023-01-10T05:26:21.486Z,97833.41
2023-01-10T05:28:48.514Z,97816.63
2023-01-10T05:31:18.578Z,97828.91
2023-01-10T05:33:52.330Z,97850.25
2023-01-10T05:36:19.618Z,97860.00
2023-01-10T05:38:46.517Z,97843.22
2023-01-10T05:41:13.117Z,97849.34
2023-01-10T05:43:39.783Z,97859.56
2023-01-10T05:46:06.601Z,97862.34
2023-01-10T05:48:33.244Z,97867.34
2023-01-10T05:51:00.135Z,97877.94
2023-01-10T05:53:26.710Z,97877.13
2023-01-10T05:55:55.435Z,97885.88
2023-01-10T05:58:22.212Z,97885.06
2023-01-10T06:00:49.087Z,97888.06
2023-01-10T06:03:16.130Z,97894.94
2023-01-10T06:05:43.096Z,97865.69
2023-01-10T06:08:09.635Z,97887.63
2023-01-10T06:10:36.492Z,97896.88
2023-01-10T06:13:05.014Z,97912.75
2023-01-10T06:15:35.304Z,97908.41
2023-01-10T06:18:02.225Z,97885.78
2023-01-10T06:20:28.969Z,97841.25
2023-01-10T06:22:55.641Z,97909.06
2023-01-10T06:25:22.349Z,97918.28
2023-01-10T06:27:49.034Z,97925.38
2023-01-10T06:30:16.041Z,97934.53
2023-01-10T06:32:42.727Z,97941.25
2023-01-10T06:35:10.318Z,97930.63
2023-01-10T06:37:36.984Z,97946.69
2023-01-10T06:40:04.568Z,97953.75
2023-01-10T06:42:31.302Z,97959.06
2023-01-10T06:44:57.904Z,97957.38
2023-01-10T06:47:24.553Z,97918.00
2023-01-10T06:49:51.180Z,97962.66
2023-01-10T06:52:17.818Z,97971.56
2023-01-10T06:54:44.718Z,97971.72
2023-01-10T06:57:11.373Z,97977.13
2023-01-10T06:59:37.894Z,97971.72
2023-01-10T07:02:10.195Z,97973.53
2023-01-10T07:04:36.791Z,97972.66
2023-01-10T07:07:03.644Z,97951.44
2023-01-10T07:09:30.432Z,97935.66
2023-01-10T07:11:57.030Z,97953.25
2023-01-10T07:14:23.796Z,97967.78
2023-01-10T07:16:50.419Z,97978.97
2023-01-10T07:19:18.257Z,97948.03
2023-01-10T07:21:44.834Z,97957.25
2023-01-10T07:24:11.677Z,97957.66
2023-01-10T07:26:38.462Z,97960.03
2023-01-10T07:29:05.402Z,97990.50
2023-01-10T07:31:31.994Z,97994.09
2023-01-10T07:33:58.688Z,97995.31
2023-01-10T07:36:25.338Z,97996.31
2023-01-10T07:38:52.017Z,98001.19
2023-01-10T07:41:18.639Z,98005.66
2023-01-10T07:43:45.429Z,97991.53
2023-01-10T07:46:12.482Z,97993.38
2023-01-10T07:48:41.976Z,98003.38
2023-01-10T07:51:09.543Z,98004.81
2023-01-10T07:53:36.270Z,98007.47
2023-01-10T07:56:05.037Z,97994.88
2023-01-10T07:58:32.985Z,97984.22
2023-01-10T08:01:00.693Z,97991.06
2023-01-10T08:03:29.896Z,98005.19
2023-01-10T08:06:05.205Z,98001.84
2023-01-10T08:08:33.661Z,98021.53
2023-01-10T08:11:02.487Z,98013.28
2023-01-10T08:13:30.356Z,98029.47
2023-01-10T08:15:57.745Z,98038.22
2023-01-10T08:18:26.002Z,97991.25
2023-01-10T08:20:53.774Z,98011.91
2023-01-10T08:25:34.265Z,98054.09
2023-01-10T08:28:01.091Z,98057.59
2023-01-10T08:30:27.646Z,98061.22
2023-01-10T08:32:54.343Z,98065.41
2023-01-10T08:35:20.875Z,98054.75
2023-01-10T08:37:47.773Z,98067.22
2023-01-10T08:40:14.490Z,98068.91
2023-01-10T08:42:41.193Z,98063.53
2023-01-10T08:45:08.471Z,98075.97
2023-01-10T08:47:35.485Z,98060.88
2023-01-10T08:50:02.759Z,98084.88
2023-01-10T08:52:29.407Z,98089.34
2023-01-10T08:54:56.101Z,98091.63
2023-01-10T08:57:22.785Z,98066.84
2023-01-10T08:59:49.334Z,98112.44
2023-01-10T09:02:16.093Z,98117.00
2023-01-10T09:04:42.753Z,98123.16
2023-01-10T09:07:12.178Z,98131.44
2023-01-10T09:09:38.727Z,98091.72
2023-01-10T09:12:25.315Z,98100.25
2023-01-10T09:14:51.926Z,98131.22
2023-01-10T09:17:18.522Z,98126.16
2023-01-10T09:19:45.189Z,98133.00
2023-01-10T09:22:11.816Z,98129.16
2023-01-10T09:24:39.231Z,98128.94
2023-01-10T09:27:06.003Z,98136.50
2023-01-10T09:29:32.622Z,98129.06
2023-01-10T09:31:59.194Z,98136.75
2023-01-10T09:34:26.465Z,98146.22
2023-01-10T09:36:53.879Z,98152.38
2023-01-10T09:39:21.598Z,98139.16
2023-01-10T09:42:28.236Z,98148.03
2023-01-10T09:45:18.937Z,98154.16
2023-01-10T09:48:05.690Z,98155.13
2023-01-10T09:50:49.155Z,98163.91
2023-01-10T09:53:27.644Z,98148.09
2023-01-10T09:55:57.444Z,98157.78
2023-01-10T09:58:27.689Z,98163.91
2023-01-10T10:00:58.507Z,98148.91
2023-01-10T10:03:42.578Z,98167.88
2023-01-10T10:06:13.922Z,98169.34
2023-01-10T10:08:43.292Z,98153.59
2023-01-10T10:11:31.247Z,98177.97
2023-01-10T10:14:06.923Z,98188.56
2023-01-10T10:16:48.758Z,98184.13
2023-01-10T10:19:24.395Z,98192.06
2023-01-10T10:22:02.741Z,98195.53
2023-01-10T10:24:53.710Z,98201.78
2023-01-10T10:27:24.882Z,98206.13
2023-01-10T10:30:08.813Z,98207.94
2023-01-10T10:33:13.918Z,98207.06
2023-01-10T10:35:51.860Z,98191.59
2023-01-10T10:38:42.454Z,98216.81
2023-01-10T10:41:25.393Z,98216.69
2023-01-10T10:43:54.435Z,98213.22
2023-01-10T10:46:22.141Z,98200.00
2023-01-10T10:49:04.500Z,98217.66
2023-01-10T10:51:52.597Z,98223.22
2023-01-10T10:54:19.661Z,98192.81
2023-01-10T10:56:47.278Z,98180.31
2023-01-10T10:59:18.557Z,98236.53
2023-01-10T11:01:51.883Z,98231.13
2023-01-10T11:04:23.797Z,98217.53
2023-01-10T11:06:50.526Z,98228.59
2023-01-10T11:09:26.782Z,98221.66
2023-01-10T11:11:56.801Z,98237.84
2023-01-10T11:14:51.443Z,98245.78
2023-01-10T11:17:26.886Z,98233.19
2023-01-10T11:20:00.829Z,98237.16
2023-01-10T11:24:55.373Z,98256.88
2023-01-10T11:27:29.891Z,98248.31
2023-01-10T11:30:03.653Z,98248.81
2023-01-10T11:32:48.081Z,98274.16
2023-01-10T11:35:32.474Z,98269.97
2023-01-10T11:38:15.093Z,98270.22
2023-01-10T11:40:54.365Z,98285.72
2023-01-10T11:43:28.251Z,98278.50
2023-01-10T11:45:57.704Z,98291.97
2023-01-10T11:48:53.191Z,98291.25
2023-01-10T11:51:28.828Z,98306.03
2023-01-10T11:53:59.827Z,98287.75
2023-01-10T11:56:31.270Z,98308.69
2023-01-10T11:59:06.907Z,98312.28
2023-01-10T12:01:47.031Z,98299.19
2023-01-10T12:04:16.217Z,98322.16
2023-01-10T12:06:46.119Z,98309.50
2023-01-10T12:09:34.854Z,98330.94
2023-01-10T12:12:03.974Z,98340.69
2023-01-10T12:14:30.834Z,98320.34
2023-01-10T12:17:03.288Z,98329.84
2023-01-10T12:19:29.921Z,98350.53
2023-01-10T12:22:02.470Z,98354.00
2023-01-10T12:24:35.839Z,98344.63
2023-01-10T12:27:03.779Z,98368.78
2023-01-10T12:29:40.090Z,98364.50
2023-01-10T12:32:17.068Z,98361.84
2023-01-10T12:34:49.786Z,98349.56
2023-01-10T12:37:25.621Z,98377.72
2023-01-10T12:39:59.813Z,98364.22
2023-01-10T12:43:20.056Z,98381.19
2023-01-10T12:46:09.719Z,98360.50
2023-01-10T12:48:50.142Z,98393.69
2023-01-10T12:51:21.668Z,98389.25
2023-01-10T12:53:57.605Z,98392.72
2023-01-10T12:56:27.627Z,98374.81
2023-01-10T12:58:59.992Z,98379.03
2023-01-10T13:01:40.664Z,98391.03
2023-01-10T13:04:12.885Z,98390.06
2023-01-10T13:06:42.699Z,98390.94
2023-01-10T13:09:17.202Z,98393.59
2023-01-10T13:12:17.221Z,98396.22
2023-01-10T13:15:02.681Z,98403.31
2023-01-10T13:17:38.041Z,98411.25
2023-01-10T13:20:16.881Z,98418.34
2023-01-10T13:22:48.933Z,98418.34
2023-01-10T13:25:28.917Z,98408.34
2023-01-10T13:28:04.806Z,98422.78
2023-01-10T13:30:32.699Z,98433.34
2023-01-10T13:33:19.676Z,98436.00
2023-01-10T13:35:48.944Z,98432.66
2023-01-10T13:38:53.959Z,98445.75
2023-01-10T13:41:40.029Z,98432.38
2023-01-10T13:44:09.966Z,98452.00
2023-01-10T13:46:39.666Z,98453.69
2023-01-10T13:49:12.108Z,98443.22
2023-01-10T13:51:59.184Z,98397.84
2023-01-10T13:54:27.654Z,98458.97
2023-01-10T13:59:52.544Z,98477.50
2023-01-10T14:02:31.638Z,98477.09
2023-01-10T14:05:17.668Z,98480.25
2023-01-10T14:07:47.550Z,98427.16
2023-01-10T14:10:24.473Z,98487.34
2023-01-10T14:12:57.174Z,98476.75
2023-01-10T14:15:36.898Z,98466.91
2023-01-10T14:18:31.764Z,98473.16
2023-01-10T14:21:01.981Z,98482.03
2023-01-10T14:23:35.765Z,98488.19
2023-01-10T14:26:03.208Z,98487.94
2023-01-10T14:28:33.300Z,98493.50
2023-01-10T14:31:22.672Z,98489.16
2023-01-10T14:33:50.228Z,98484.09
2023-01-10T14:36:29.584Z,98498.16
2023-01-10T14:39:00.720Z,98508.50
2023-01-10T14:41:45.487Z,98499.34
2023-01-10T14:44:31.388Z,98514.88
2023-01-10T14:47:04.517Z,98515.72
2023-01-10T14:49:35.911Z,98515.00
2023-01-10T14:52:22.651Z,98516.56
2023-01-10T14:55:16.397Z,98519.22
2023-01-10T14:57:56.335Z,98504.16
2023-01-10T15:00:36.783Z,98499.84
2023-01-10T15:03:04.436Z,98492.75
2023-01-10T15:05:36.460Z,98490.44
2023-01-10T15:08:23.146Z,98503.34
2023-01-10T15:10:52.904Z,98495.75
2023-01-10T15:13:23.980Z,98507.88
2023-01-10T15:15:51.630Z,98477.19
2023-01-10T15:18:43.242Z,98513.91
2023-01-10T15:21:13.042Z,98511.59
2023-01-10T15:23:42.510Z,98514.75
2023-01-10T15:26:16.974Z,98516.56
2023-01-10T15:28:49.316Z,98493.41
2023-01-10T15:31:19.308Z,98492.44
2023-01-10T15:33:56.321Z,98512.41
2023-01-10T15:36:27.385Z,98522.19
2023-01-10T15:38:54.708Z,98517.22
2023-01-10T15:41:23.582Z,98524.63
2023-01-10T15:43:52.141Z,98528.09
2023-01-10T15:46:24.634Z,98523.13
2023-01-10T15:49:01.319Z,98506.75
2023-01-10T15:51:29.422Z,98545.78
2023-01-10T15:54:26.408Z,98541.66
2023-01-10T15:57:21.989Z,98550.22
2023-01-10T15:59:53.323Z,98557.78
2023-01-10T16:02:32.819Z,98565.13
2023-01-10T16:05:09.055Z,98561.25
2023-01-10T16:07:43.387Z,98566.31
2023-01-10T16:10:27.224Z,98566.69
2023-01-10T16:13:28.619Z,98564.16
2023-01-10T16:15:56.359Z,98572.94
2023-01-10T16:18:23.322Z,98560.53
2023-01-10T16:20:56.340Z,98566.31
2023-01-10T16:23:30.502Z,98592.19
2023-01-10T16:25:59.941Z,98599.19
2023-01-10T16:28:30.754Z,98593.88
2023-01-10T16:30:57.374Z,98588.81
2023-01-10T16:33:27.702Z,98599.06
2023-01-10T16:35:59.502Z,98608.81
2023-01-10T16:38:28.253Z,98611.34
2023-01-10T16:40:59.835Z,98608.19
2023-01-10T16:43:29.095Z,98609.00
2023-01-10T16:46:00.809Z,98622.75
2023-01-10T16:48:29.413Z,98633.13
2023-01-10T16:51:05.636Z,98629.34
2023-01-10T16:53:32.294Z,98654.28
2023-01-10T16:55:58.875Z,98650.69
2023-01-10T16:58:25.479Z,98669.19
2023-01-10T17:00:52.829Z,98668.25
2023-01-10T17:03:27.451Z,98664.03
2023-01-10T17:05:54.122Z,98668.25
2023-01-10T17:08:27.757Z,98677.84
2023-01-10T17:10:59.093Z,98659.91
2023-01-10T17:13:36.047Z,98669.53
2023-01-10T17:16:03.067Z,98681.47
2023-01-10T17:20:49.366Z,98691.00
2023-01-10T17:23:16.142Z,98679.28
2023-01-10T17:25:42.791Z,98690.03
2023-01-10T17:30:42.788Z,98691.00
2023-01-10T17:33:10.885Z,98705.78
2023-01-10T17:35:41.317Z,98711.91
2023-01-10T17:38:13.163Z,98704.22
2023-01-10T17:40:41.633Z,98713.63
2023-01-10T17:43:09.205Z,98714.56
2023-01-10T17:45:39.688Z,98719.78
2023-01-10T17:48:07.078Z,98720.59
2023-01-10T17:50:33.831Z,98721.78
2023-01-10T17:53:00.516Z,98714.81
2023-01-10T17:55:27.129Z,98722.28
2023-01-10T17:57:53.860Z,98700.00
2023-01-10T18:00:20.698Z,98702.53
2023-01-10T18:02:48.985Z,98715.19
2023-01-10T18:05:15.709Z,98719.78
2023-01-10T18:07:42.397Z,98721.34
2023-01-10T18:10:09.611Z,98710.34
2023-01-10T18:12:36.362Z,98723.25
2023-01-10T18:15:04.718Z,98724.81
2023-01-10T18:17:31.722Z,98716.88
2023-01-10T18:19:58.288Z,98711.28
2023-01-10T18:22:45.737Z,98721.34
2023-01-10T18:25:12.383Z,98721.78
2023-01-10T18:27:38.981Z,98722.28
2023-01-10T18:30:06.422Z,98725.66
2023-01-10T18:32:33.076Z,98729.16
2023-01-10T18:34:59.995Z,98719.41
2023-01-10T18:37:26.858Z,98723.88
2023-01-10T18:39:53.568Z,98717.97
2023-01-10T18:42:20.158Z,98730.94
2023-01-10T18:44:46.891Z,98734.34
2023-01-10T18:47:13.530Z,98708.88
2023-01-10T18:49:41.011Z,98719.03
2023-01-10T18:52:07.637Z,98720.72
2023-01-10T18:54:34.410Z,98736.03
2023-01-10T18:57:01.035Z,98743.13
2023-01-10T18:59:30.602Z,98745.66
2023-01-10T19:01:57.122Z,98735.19
2023-01-10T19:04:23.883Z,98740.38
2023-01-10T19:06:51.498Z,98742.28
2023-01-10T19:09:19.413Z,98745.66
2023-01-10T19:11:46.001Z,98741.31
2023-01-10T19:14:12.777Z,98750.09
2023-01-10T19:16:39.427Z,98758.78
2023-01-10T19:19:09.319Z,98750.53
2023-01-10T19:21:39.021Z,98762.38
2023-01-10T19:24:08.531Z,98772.97
2023-01-10T19:26:35.311Z,98770.31
2023-01-10T19:29:07.911Z,98774.66
2023-01-10T19:31:34.566Z,98763.44
2023-01-10T19:34:01.431Z,98758.47
2023-01-10T19:36:29.220Z,98778.13
2023-01-10T19:38:58.493Z,98776.47
2023-01-10T19:41:27.350Z,98755.94
2023-01-10T19:43:58.536Z,98772.13
2023-01-10T19:46:26.658Z,98761.53
2023-01-10T19:48:56.024Z,98772.13
2023-01-10T19:51:22.819Z,98773.91
2023-01-10T19:53:49.947Z,98773.19
2023-01-10T19:56:21.670Z,98753.00
2023-01-10T19:58:49.569Z,98776.16
2023-01-10T20:01:22.688Z,98780.28
2023-01-10T20:03:49.509Z,98785.56
2023-01-10T20:06:19.949Z,98780.28
2023-01-10T20:08:47.479Z,98782.09
2023-01-10T20:11:15.519Z,98788.22
2023-01-10T20:13:44.965Z,98783.38
2023-01-10T20:16:15.500Z,98789.16
2023-01-10T20:18:43.407Z,98769.00
2023-01-10T20:21:12.341Z,98761.50
2023-01-10T20:23:40.627Z,98795.53
2023-01-10T20:26:09.633Z,98801.81
2023-01-10T20:28:36.643Z,98799.47
2023-01-10T20:31:03.642Z,98795.34
2023-01-10T20:33:32.365Z,98783.59
2023-01-10T20:36:06.388Z,98808.13
2023-01-10T20:38:34.946Z,98794.69
2023-01-10T20:41:17.434Z,98797.97
2023-01-10T20:43:47.490Z,98805.59
2023-01-10T20:46:20.073Z,98814.47
2023-01-10T20:48:47.968Z,98815.44
2023-01-10T20:51:18.406Z,98821.72
2023-01-10T20:53:49.838Z,98819.06
2023-01-10T20:56:22.848Z,98817.56
2023-01-10T20:58:50.906Z,98824.56
2023-01-10T21:01:33.142Z,98815.28
2023-01-10T21:04:01.133Z,98818.88
2023-01-10T21:06:27.969Z,98825.63
2023-01-10T21:08:54.787Z,98830.16
2023-01-10T21:11:21.707Z,98824.03
2023-01-10T21:13:48.583Z,98800.47
2023-01-10T21:16:18.234Z,98824.47
2023-01-10T21:18:46.571Z,98830.28
2023-01-10T21:21:15.631Z,98825.94
2023-01-10T21:23:42.803Z,98804.91
2023-01-10T21:26:12.310Z,98820.44
2023-01-10T21:28:46.661Z,98833.34
2023-01-10T21:31:19.289Z,98825.41
2023-01-10T21:33:46.055Z,98837.56
2023-01-10T21:38:27.334Z,98837.69
2023-01-10T21:40:55.144Z,98824.16
2023-01-10T21:43:22.620Z,98843.09
2023-01-10T21:45:49.712Z,98841.41
2023-01-10T21:48:16.321Z,98832.09
2023-01-10T21:50:47.490Z,98824.38
2023-01-10T21:53:14.219Z,98827.84
2023-01-10T21:58:06.585Z,98846.81
2023-01-10T22:00:33.306Z,98846.38
2023-01-10T22:02:59.925Z,98849.97
2023-01-10T22:05:26.705Z,98827.84
2023-01-10T22:07:55.302Z,98841.91
2023-01-10T22:10:22.244Z,98840.97
2023-01-10T22:12:51.440Z,98844.38
2023-01-10T22:15:18.141Z,98838.44
2023-01-10T22:17:44.856Z,98856.63
2023-01-10T22:20:12.499Z,98842.75
2023-01-10T22:22:39.159Z,98828.19
2023-01-10T22:25:06.395Z,98838.97
2023-01-10T22:27:32.968Z,98851.97
2023-01-10T22:29:59.712Z,98833.88
2023-01-10T22:32:26.373Z,98842.25
2023-01-10T22:34:53.139Z,98838.97
2023-01-10T22:37:19.768Z,98848.25
2023-01-10T22:39:48.413Z,98830.50
2023-01-10T22:42:15.239Z,98849.00
2023-01-10T22:44:42.043Z,98849.00
2023-01-10T22:47:08.960Z,98835.56
2023-01-10T22:49:35.745Z,98833.66
2023-01-10T22:52:02.451Z,98847.94
2023-01-10T22:54:29.050Z,98846.47
2023-01-10T22:56:55.683Z,98832.16
2023-01-10T23:02:06.633Z,98829.44
2023-01-10T23:04:33.274Z,98852.28
2023-01-10T23:07:00.015Z,98859.47
2023-01-10T23:09:26.612Z,98844.03
2023-01-10T23:11:53.185Z,98864.44
2023-01-10T23:14:19.705Z,98846.97
2023-01-10T23:16:46.397Z,98857.44
2023-01-10T23:19:13.122Z,98857.25
2023-01-10T23:21:39.884Z,98850.16
2023-01-10T23:24:06.882Z,98850.25
2023-01-10T23:26:33.547Z,98852.06
2023-01-10T23:29:00.132Z,98847.94
2023-01-10T23:31:29.454Z,98851.97
2023-01-10T23:33:56.568Z,98851.72
2023-01-10T23:36:23.853Z,98857.88
2023-01-10T23:38:50.754Z,98846.34
2023-01-10T23:41:21.202Z,98852.47
2023-01-10T23:43:49.623Z,98849.00
2023-01-10T23:46:16.555Z,98857.78
2023-01-10T23:48:46.053Z,98785.66
2023-01-10T23:51:13.673Z,98810.94
2023-01-10T23:53:40.943Z,98795.69
2023-01-10T23:56:13.335Z,98853.09
2023-01-10T23:58:40.660Z,98797.28
